Terminal Aerodrome Forecast
Issued by NWS

Home | Current Version | Previous Version | Text Only | Print | Product List | Glossary On
Versions: 1 2 3 4 5 6 7 8 9 10 11 12 13 14 15 16 17 18 19 20 21 22
181
FTUS43 KMPX 261120
TAFRWF
TAF
KRWF 261120Z 2612/2712 22005KT P6SM SCT250
     FM261400 29008KT P6SM FEW250
     FM270100 VRB03KT P6SM BKN150
     FM270400 08005KT P6SM VCSH SCT060 BKN100 PROB30 2704/2710 -TSRA
      BKN030CB=

USA.gov is the U.S. government's official web portal to all federal, state and local government web resources and services.